sensor_id;sensor_type;location;lat;lon;timestamp;P1;durP1;ratioP1;P2;durP2;ratioP2
11996;SDS011;6058;48.704;9.474;2024-03-07T00:02:05;12.53;;;9.53;;
11996;SDS011;6058;48.704;9.474;2024-03-07T00:04:33;12.03;;;9.37;;
11996;SDS011;6058;48.704;9.474;2024-03-07T00:07:02;12.43;;;9.43;;
11996;SDS011;6058;48.704;9.474;2024-03-07T00:09:31;12.83;;;9.27;;
11996;SDS011;6058;48.704;9.474;2024-03-07T00:11:58;14.07;;;9.47;;
11996;SDS011;6058;48.704;9.474;2024-03-07T00:14:25;14.27;;;9.10;;
11996;SDS011;6058;48.704;9.474;2024-03-07T00:16:53;11.23;;;8.17;;
11996;SDS011;6058;48.704;9.474;2024-03-07T00:19:20;13.53;;;9.27;;
11996;SDS011;6058;48.704;9.474;2024-03-07T00:21:50;10.93;;;8.93;;
11996;SDS011;6058;48.704;9.474;2024-03-07T00:24:19;16.90;;;9.37;;
11996;SDS011;6058;48.704;9.474;2024-03-07T00:26:46;12.17;;;8.97;;
11996;SDS011;6058;48.704;9.474;2024-03-07T00:29:15;10.90;;;9.07;;
11996;SDS011;6058;48.704;9.474;2024-03-07T00:31:43;11.07;;;8.53;;
11996;SDS011;6058;48.704;9.474;2024-03-07T00:34:11;13.33;;;10.23;;
11996;SDS011;6058;48.704;9.474;2024-03-07T00:36:39;12.10;;;9.33;;
11996;SDS011;6058;48.704;9.474;2024-03-07T00:39:06;14.20;;;9.17;;
11996;SDS011;6058;48.704;9.474;2024-03-07T00:41:38;14.20;;;10.07;;
11996;SDS011;6058;48.704;9.474;2024-03-07T00:44:05;16.97;;;10.70;;
11996;SDS011;6058;48.704;9.474;2024-03-07T00:46:34;14.87;;;9.67;;
11996;SDS011;6058;48.704;9.474;2024-03-07T00:49:02;17.97;;;11.20;;
11996;SDS011;6058;48.704;9.474;2024-03-07T00:51:29;14.27;;;9.73;;
11996;SDS011;6058;48.704;9.474;2024-03-07T00:53:57;19.93;;;12.40;;
11996;SDS011;6058;48.704;9.474;2024-03-07T00:56:24;15.47;;;11.00;;
11996;SDS011;6058;48.704;9.474;2024-03-07T00:58:52;16.00;;;10.80;;
11996;SDS011;6058;48.704;9.474;2024-03-07T01:01:19;16.47;;;10.93;;
11996;SDS011;6058;48.704;9.474;2024-03-07T01:03:47;19.73;;;10.80;;
11996;SDS011;6058;48.704;9.474;2024-03-07T01:06:14;19.13;;;12.03;;
11996;SDS011;6058;48.704;9.474;2024-03-07T01:08:41;17.40;;;10.80;;
11996;SDS011;6058;48.704;9.474;2024-03-07T01:11:08;20.57;;;12.67;;
11996;SDS011;6058;48.704;9.474;2024-03-07T01:13:37;17.27;;;11.57;;
11996;SDS011;6058;48.704;9.474;2024-03-07T01:16:06;18.60;;;11.67;;
11996;SDS011;6058;48.704;9.474;2024-03-07T01:18:33;17.07;;;11.17;;
11996;SDS011;6058;48.704;9.474;2024-03-07T01:21:00;23.17;;;14.37;;
11996;SDS011;6058;48.704;9.474;2024-03-07T01:23:28;17.90;;;11.63;;
11996;SDS011;6058;48.704;9.474;2024-03-07T01:25:55;19.40;;;13.40;;
11996;SDS011;6058;48.704;9.474;2024-03-07T01:28:22;19.73;;;11.60;;
11996;SDS011;6058;48.704;9.474;2024-03-07T01:30:50;23.13;;;14.60;;
11996;SDS011;6058;48.704;9.474;2024-03-07T01:33:19;21.90;;;13.83;;
11996;SDS011;6058;48.704;9.474;2024-03-07T01:35:52;20.50;;;12.70;;
11996;SDS011;6058;48.704;9.474;2024-03-07T01:38:19;19.17;;;11.90;;
11996;SDS011;6058;48.704;9.474;2024-03-07T01:40:46;13.77;;;10.17;;
11996;SDS011;6058;48.704;9.474;2024-03-07T01:43:13;18.43;;;11.30;;
11996;SDS011;6058;48.704;9.474;2024-03-07T01:45:41;15.37;;;10.27;;
11996;SDS011;6058;48.704;9.474;2024-03-07T01:48:09;17.20;;;11.10;;
11996;SDS011;6058;48.704;9.474;2024-03-07T01:50:38;17.37;;;11.10;;
11996;SDS011;6058;48.704;9.474;2024-03-07T01:53:05;20.63;;;13.30;;
11996;SDS011;6058;48.704;9.474;2024-03-07T01:55:33;17.23;;;11.67;;
11996;SDS011;6058;48.704;9.474;2024-03-07T01:58:01;18.00;;;11.50;;
11996;SDS011;6058;48.704;9.474;2024-03-07T02:00:29;26.17;;;14.83;;
11996;SDS011;6058;48.704;9.474;2024-03-07T02:02:56;23.50;;;13.87;;
11996;SDS011;6058;48.704;9.474;2024-03-07T02:05:23;21.83;;;13.97;;
11996;SDS011;6058;48.704;9.474;2024-03-07T02:07:52;25.83;;;15.10;;
11996;SDS011;6058;48.704;9.474;2024-03-07T02:10:19;24.50;;;13.80;;
11996;SDS011;6058;48.704;9.474;2024-03-07T02:12:46;26.60;;;16.07;;
11996;SDS011;6058;48.704;9.474;2024-03-07T02:15:14;27.10;;;15.83;;
11996;SDS011;6058;48.704;9.474;2024-03-07T02:17:41;22.70;;;14.53;;
11996;SDS011;6058;48.704;9.474;2024-03-07T02:20:09;23.13;;;14.13;;
11996;SDS011;6058;48.704;9.474;2024-03-07T02:22:39;26.10;;;14.67;;
11996;SDS011;6058;48.704;9.474;2024-03-07T02:25:07;23.97;;;14.87;;
11996;SDS011;6058;48.704;9.474;2024-03-07T02:27:36;22.83;;;14.63;;
11996;SDS011;6058;48.704;9.474;2024-03-07T02:30:03;22.33;;;14.20;;
11996;SDS011;6058;48.704;9.474;2024-03-07T02:32:33;22.00;;;14.13;;
11996;SDS011;6058;48.704;9.474;2024-03-07T02:35:02;24.27;;;16.20;;
11996;SDS011;6058;48.704;9.474;2024-03-07T02:37:29;23.10;;;15.23;;
11996;SDS011;6058;48.704;9.474;2024-03-07T02:39:58;24.97;;;16.07;;
11996;SDS011;6058;48.704;9.474;2024-03-07T02:42:25;26.47;;;16.50;;
11996;SDS011;6058;48.704;9.474;2024-03-07T02:44:53;25.47;;;15.17;;
11996;SDS011;6058;48.704;9.474;2024-03-07T02:47:20;26.87;;;15.37;;
11996;SDS011;6058;48.704;9.474;2024-03-07T02:49:48;22.30;;;14.13;;
11996;SDS011;6058;48.704;9.474;2024-03-07T02:52:16;27.17;;;16.57;;
11996;SDS011;6058;48.704;9.474;2024-03-07T02:54:43;23.93;;;14.57;;
11996;SDS011;6058;48.704;9.474;2024-03-07T02:57:11;24.73;;;15.60;;
11996;SDS011;6058;48.704;9.474;2024-03-07T02:59:38;21.60;;;14.50;;
11996;SDS011;6058;48.704;9.474;2024-03-07T03:02:05;22.50;;;14.90;;
11996;SDS011;6058;48.704;9.474;2024-03-07T03:04:32;21.53;;;14.47;;
11996;SDS011;6058;48.704;9.474;2024-03-07T03:07:00;26.30;;;15.57;;
11996;SDS011;6058;48.704;9.474;2024-03-07T03:09:27;27.10;;;16.33;;
11996;SDS011;6058;48.704;9.474;2024-03-07T03:11:54;29.60;;;16.80;;
11996;SDS011;6058;48.704;9.474;2024-03-07T03:14:22;25.30;;;16.37;;
11996;SDS011;6058;48.704;9.474;2024-03-07T03:16:50;27.27;;;17.23;;
11996;SDS011;6058;48.704;9.474;2024-03-07T03:19:17;25.67;;;16.70;;
11996;SDS011;6058;48.704;9.474;2024-03-07T03:21:44;23.63;;;15.57;;
11996;SDS011;6058;48.704;9.474;2024-03-07T03:24:11;26.47;;;15.73;;
11996;SDS011;6058;48.704;9.474;2024-03-07T03:26:38;29.07;;;16.40;;
11996;SDS011;6058;48.704;9.474;2024-03-07T03:29:07;23.07;;;15.20;;
11996;SDS011;6058;48.704;9.474;2024-03-07T03:31:38;24.00;;;15.27;;
11996;SDS011;6058;48.704;9.474;2024-03-07T03:34:05;25.27;;;15.60;;
11996;SDS011;6058;48.704;9.474;2024-03-07T03:36:33;25.73;;;15.40;;
11996;SDS011;6058;48.704;9.474;2024-03-07T03:39:00;25.50;;;14.83;;
11996;SDS011;6058;48.704;9.474;2024-03-07T03:41:28;22.83;;;15.80;;
11996;SDS011;6058;48.704;9.474;2024-03-07T03:43:55;25.97;;;15.57;;
11996;SDS011;6058;48.704;9.474;2024-03-07T03:46:23;22.77;;;15.27;;
11996;SDS011;6058;48.704;9.474;2024-03-07T03:48:51;21.10;;;13.67;;
11996;SDS011;6058;48.704;9.474;2024-03-07T03:51:19;27.80;;;13.27;;
11996;SDS011;6058;48.704;9.474;2024-03-07T03:53:47;23.70;;;15.43;;
11996;SDS011;6058;48.704;9.474;2024-03-07T03:56:14;23.87;;;15.30;;
11996;SDS011;6058;48.704;9.474;2024-03-07T03:58:42;29.17;;;16.70;;
11996;SDS011;6058;48.704;9.474;2024-03-07T04:01:11;25.50;;;15.33;;
11996;SDS011;6058;48.704;9.474;2024-03-07T04:03:39;25.13;;;16.43;;
11996;SDS011;6058;48.704;9.474;2024-03-07T04:06:08;22.97;;;15.60;;
11996;SDS011;6058;48.704;9.474;2024-03-07T04:08:35;26.73;;;16.00;;
11996;SDS011;6058;48.704;9.474;2024-03-07T04:11:03;27.97;;;15.30;;
11996;SDS011;6058;48.704;9.474;2024-03-07T04:13:34;26.67;;;15.37;;
11996;SDS011;6058;48.704;9.474;2024-03-07T04:16:01;26.80;;;16.43;;
11996;SDS011;6058;48.704;9.474;2024-03-07T04:18:28;23.23;;;14.97;;
11996;SDS011;6058;48.704;9.474;2024-03-07T04:20:56;22.77;;;15.13;;
11996;SDS011;6058;48.704;9.474;2024-03-07T04:23:24;23.00;;;14.13;;
11996;SDS011;6058;48.704;9.474;2024-03-07T04:25:52;25.80;;;15.20;;
11996;SDS011;6058;48.704;9.474;2024-03-07T04:28:21;24.57;;;14.93;;
11996;SDS011;6058;48.704;9.474;2024-03-07T04:30:48;26.50;;;14.70;;
11996;SDS011;6058;48.704;9.474;2024-03-07T04:33:15;29.00;;;16.40;;
11996;SDS011;6058;48.704;9.474;2024-03-07T04:35:42;25.30;;;15.73;;
11996;SDS011;6058;48.704;9.474;2024-03-07T04:38:10;27.47;;;16.13;;
11996;SDS011;6058;48.704;9.474;2024-03-07T04:40:41;25.83;;;16.13;;
11996;SDS011;6058;48.704;9.474;2024-03-07T04:43:08;26.07;;;15.40;;
11996;SDS011;6058;48.704;9.474;2024-03-07T04:45:36;29.13;;;17.17;;
11996;SDS011;6058;48.704;9.474;2024-03-07T04:48:03;25.17;;;16.60;;
11996;SDS011;6058;48.704;9.474;2024-03-07T04:50:31;25.73;;;14.90;;
11996;SDS011;6058;48.704;9.474;2024-03-07T04:52:58;26.50;;;15.50;;
11996;SDS011;6058;48.704;9.474;2024-03-07T04:55:25;25.00;;;15.40;;
11996;SDS011;6058;48.704;9.474;2024-03-07T04:57:53;26.17;;;15.70;;
11996;SDS011;6058;48.704;9.474;2024-03-07T05:00:20;22.87;;;14.83;;
11996;SDS011;6058;48.704;9.474;2024-03-07T05:02:49;22.17;;;15.13;;
11996;SDS011;6058;48.704;9.474;2024-03-07T05:05:17;22.67;;;14.93;;
11996;SDS011;6058;48.704;9.474;2024-03-07T05:07:47;27.70;;;15.23;;
11996;SDS011;6058;48.704;9.474;2024-03-07T05:10:15;22.37;;;14.57;;
11996;SDS011;6058;48.704;9.474;2024-03-07T05:12:43;20.80;;;13.93;;
11996;SDS011;6058;48.704;9.474;2024-03-07T05:15:11;20.50;;;13.50;;
11996;SDS011;6058;48.704;9.474;2024-03-07T05:17:38;24.77;;;14.77;;
11996;SDS011;6058;48.704;9.474;2024-03-07T05:20:08;20.40;;;13.67;;
11996;SDS011;6058;48.704;9.474;2024-03-07T05:22:37;25.37;;;15.33;;
11996;SDS011;6058;48.704;9.474;2024-03-07T05:25:05;23.57;;;15.37;;
11996;SDS011;6058;48.704;9.474;2024-03-07T05:27:33;22.50;;;13.60;;
11996;SDS011;6058;48.704;9.474;2024-03-07T05:30:01;25.17;;;15.43;;
11996;SDS011;6058;48.704;9.474;2024-03-07T05:32:32;24.43;;;15.43;;
11996;SDS011;6058;48.704;9.474;2024-03-07T05:34:59;20.43;;;13.87;;
11996;SDS011;6058;48.704;9.474;2024-03-07T05:37:26;22.37;;;14.17;;
11996;SDS011;6058;48.704;9.474;2024-03-07T05:39:53;26.07;;;14.97;;
11996;SDS011;6058;48.704;9.474;2024-03-07T05:42:21;25.03;;;15.77;;
11996;SDS011;6058;48.704;9.474;2024-03-07T05:44:50;24.03;;;14.60;;
11996;SDS011;6058;48.704;9.474;2024-03-07T05:47:18;23.67;;;14.40;;
11996;SDS011;6058;48.704;9.474;2024-03-07T05:49:48;24.47;;;15.43;;
11996;SDS011;6058;48.704;9.474;2024-03-07T05:52:15;24.87;;;16.07;;
11996;SDS011;6058;48.704;9.474;2024-03-07T05:54:42;26.47;;;15.97;;
11996;SDS011;6058;48.704;9.474;2024-03-07T05:57:10;23.67;;;15.80;;
11996;SDS011;6058;48.704;9.474;2024-03-07T05:59:37;25.33;;;16.00;;
11996;SDS011;6058;48.704;9.474;2024-03-07T06:02:04;25.63;;;14.70;;
11996;SDS011;6058;48.704;9.474;2024-03-07T06:04:31;22.50;;;14.57;;
11996;SDS011;6058;48.704;9.474;2024-03-07T06:07:00;24.43;;;15.43;;
11996;SDS011;6058;48.704;9.474;2024-03-07T06:09:27;22.57;;;14.93;;
11996;SDS011;6058;48.704;9.474;2024-03-07T06:11:54;22.17;;;14.30;;
11996;SDS011;6058;48.704;9.474;2024-03-07T06:14:21;23.50;;;15.30;;
11996;SDS011;6058;48.704;9.474;2024-03-07T06:16:49;25.80;;;16.27;;
11996;SDS011;6058;48.704;9.474;2024-03-07T06:19:18;25.80;;;16.00;;
11996;SDS011;6058;48.704;9.474;2024-03-07T06:21:45;30.90;;;20.07;;
11996;SDS011;6058;48.704;9.474;2024-03-07T06:24:14;34.03;;;19.20;;
11996;SDS011;6058;48.704;9.474;2024-03-07T06:26:43;27.10;;;16.47;;
11996;SDS011;6058;48.704;9.474;2024-03-07T06:29:25;26.23;;;16.27;;
11996;SDS011;6058;48.704;9.474;2024-03-07T06:31:53;21.47;;;14.83;;
11996;SDS011;6058;48.704;9.474;2024-03-07T06:34:20;21.97;;;14.97;;
11996;SDS011;6058;48.704;9.474;2024-03-07T06:36:47;27.63;;;16.63;;
11996;SDS011;6058;48.704;9.474;2024-03-07T06:39:16;25.20;;;16.23;;
11996;SDS011;6058;48.704;9.474;2024-03-07T06:41:47;23.47;;;14.73;;
11996;SDS011;6058;48.704;9.474;2024-03-07T06:44:14;22.53;;;15.37;;
11996;SDS011;6058;48.704;9.474;2024-03-07T06:46:42;22.97;;;14.03;;
11996;SDS011;6058;48.704;9.474;2024-03-07T06:49:10;22.97;;;14.30;;
11996;SDS011;6058;48.704;9.474;2024-03-07T06:51:37;23.80;;;13.60;;
11996;SDS011;6058;48.704;9.474;2024-03-07T06:54:05;23.20;;;14.50;;
11996;SDS011;6058;48.704;9.474;2024-03-07T06:56:33;22.73;;;14.67;;
11996;SDS011;6058;48.704;9.474;2024-03-07T06:59:03;25.10;;;14.40;;
11996;SDS011;6058;48.704;9.474;2024-03-07T07:01:31;21.37;;;14.47;;
11996;SDS011;6058;48.704;9.474;2024-03-07T07:03:58;22.13;;;14.40;;
11996;SDS011;6058;48.704;9.474;2024-03-07T07:06:28;22.53;;;13.70;;
11996;SDS011;6058;48.704;9.474;2024-03-07T07:08:56;22.83;;;14.20;;
11996;SDS011;6058;48.704;9.474;2024-03-07T07:11:27;26.33;;;15.40;;
11996;SDS011;6058;48.704;9.474;2024-03-07T07:13:56;23.17;;;13.70;;
11996;SDS011;6058;48.704;9.474;2024-03-07T07:16:23;23.57;;;15.40;;
11996;SDS011;6058;48.704;9.474;2024-03-07T07:18:50;22.00;;;14.37;;
11996;SDS011;6058;48.704;9.474;2024-03-07T07:21:18;26.73;;;15.33;;
11996;SDS011;6058;48.704;9.474;2024-03-07T07:23:46;24.23;;;14.67;;
11996;SDS011;6058;48.704;9.474;2024-03-07T07:26:13;25.63;;;15.10;;
11996;SDS011;6058;48.704;9.474;2024-03-07T07:28:42;23.77;;;15.20;;
11996;SDS011;6058;48.704;9.474;2024-03-07T07:31:10;25.10;;;15.60;;
11996;SDS011;6058;48.704;9.474;2024-03-07T07:33:38;24.00;;;15.27;;
11996;SDS011;6058;48.704;9.474;2024-03-07T07:36:05;26.83;;;17.07;;
11996;SDS011;6058;48.704;9.474;2024-03-07T07:38:32;26.03;;;15.37;;
11996;SDS011;6058;48.704;9.474;2024-03-07T07:41:00;28.00;;;16.50;;
11996;SDS011;6058;48.704;9.474;2024-03-07T07:43:27;24.60;;;15.90;;
11996;SDS011;6058;48.704;9.474;2024-03-07T07:45:54;25.03;;;15.77;;
11996;SDS011;6058;48.704;9.474;2024-03-07T07:48:23;27.00;;;16.47;;
11996;SDS011;6058;48.704;9.474;2024-03-07T07:50:50;25.20;;;15.53;;
11996;SDS011;6058;48.704;9.474;2024-03-07T07:53:17;27.60;;;17.10;;
11996;SDS011;6058;48.704;9.474;2024-03-07T07:55:44;27.83;;;16.43;;
11996;SDS011;6058;48.704;9.474;2024-03-07T07:58:11;23.87;;;15.60;;
11996;SDS011;6058;48.704;9.474;2024-03-07T08:00:38;27.83;;;16.83;;
11996;SDS011;6058;48.704;9.474;2024-03-07T08:03:08;27.07;;;15.43;;
11996;SDS011;6058;48.704;9.474;2024-03-07T08:05:37;26.63;;;16.07;;
11996;SDS011;6058;48.704;9.474;2024-03-07T08:08:04;24.53;;;15.57;;
11996;SDS011;6058;48.704;9.474;2024-03-07T08:10:44;24.90;;;15.37;;
11996;SDS011;6058;48.704;9.474;2024-03-07T08:13:12;25.43;;;15.63;;
11996;SDS011;6058;48.704;9.474;2024-03-07T08:15:39;24.63;;;15.47;;
11996;SDS011;6058;48.704;9.474;2024-03-07T08:18:07;28.33;;;16.60;;
11996;SDS011;6058;48.704;9.474;2024-03-07T08:20:34;43.80;;;23.00;;
11996;SDS011;6058;48.704;9.474;2024-03-07T08:23:03;44.20;;;24.37;;
11996;SDS011;6058;48.704;9.474;2024-03-07T08:25:30;32.27;;;19.53;;
11996;SDS011;6058;48.704;9.474;2024-03-07T08:27:57;28.20;;;18.07;;
11996;SDS011;6058;48.704;9.474;2024-03-07T08:30:25;30.23;;;18.40;;
11996;SDS011;6058;48.704;9.474;2024-03-07T08:32:54;27.40;;;16.57;;
11996;SDS011;6058;48.704;9.474;2024-03-07T08:35:21;27.90;;;17.23;;
11996;SDS011;6058;48.704;9.474;2024-03-07T08:37:49;25.80;;;17.23;;
11996;SDS011;6058;48.704;9.474;2024-03-07T08:40:19;28.80;;;17.53;;
11996;SDS011;6058;48.704;9.474;2024-03-07T08:42:47;26.43;;;17.33;;
11996;SDS011;6058;48.704;9.474;2024-03-07T08:45:15;25.77;;;16.43;;
11996;SDS011;6058;48.704;9.474;2024-03-07T08:47:44;28.30;;;17.43;;
11996;SDS011;6058;48.704;9.474;2024-03-07T08:50:11;29.07;;;17.57;;
11996;SDS011;6058;48.704;9.474;2024-03-07T08:52:40;28.97;;;19.37;;
11996;SDS011;6058;48.704;9.474;2024-03-07T08:55:08;27.23;;;16.43;;
11996;SDS011;6058;48.704;9.474;2024-03-07T08:57:38;29.90;;;17.83;;
11996;SDS011;6058;48.704;9.474;2024-03-07T09:00:05;29.57;;;18.70;;
11996;SDS011;6058;48.704;9.474;2024-03-07T09:02:34;31.33;;;19.17;;
11996;SDS011;6058;48.704;9.474;2024-03-07T09:05:01;29.30;;;16.70;;
11996;SDS011;6058;48.704;9.474;2024-03-07T09:07:29;29.00;;;17.07;;
11996;SDS011;6058;48.704;9.474;2024-03-07T09:09:56;27.60;;;17.20;;
11996;SDS011;6058;48.704;9.474;2024-03-07T09:12:23;27.97;;;17.27;;
11996;SDS011;6058;48.704;9.474;2024-03-07T09:14:52;28.70;;;18.40;;
11996;SDS011;6058;48.704;9.474;2024-03-07T09:17:26;28.40;;;16.17;;
11996;SDS011;6058;48.704;9.474;2024-03-07T09:19:53;26.87;;;18.20;;
11996;SDS011;6058;48.704;9.474;2024-03-07T09:22:20;30.13;;;20.40;;
11996;SDS011;6058;48.704;9.474;2024-03-07T09:24:47;30.10;;;18.23;;
11996;SDS011;6058;48.704;9.474;2024-03-07T09:27:14;32.27;;;19.60;;
11996;SDS011;6058;48.704;9.474;2024-03-07T09:29:44;27.87;;;18.07;;
11996;SDS011;6058;48.704;9.474;2024-03-07T09:32:13;30.93;;;19.40;;
11996;SDS011;6058;48.704;9.474;2024-03-07T09:34:42;30.73;;;18.90;;
11996;SDS011;6058;48.704;9.474;2024-03-07T09:37:09;26.87;;;17.50;;
11996;SDS011;6058;48.704;9.474;2024-03-07T09:39:36;29.23;;;17.43;;
11996;SDS011;6058;48.704;9.474;2024-03-07T09:42:04;34.37;;;19.83;;
11996;SDS011;6058;48.704;9.474;2024-03-07T09:44:34;29.50;;;18.87;;
11996;SDS011;6058;48.704;9.474;2024-03-07T09:47:04;33.03;;;19.37;;
11996;SDS011;6058;48.704;9.474;2024-03-07T09:49:33;29.07;;;18.10;;
11996;SDS011;6058;48.704;9.474;2024-03-07T09:52:02;33.20;;;19.37;;
11996;SDS011;6058;48.704;9.474;2024-03-07T09:54:30;29.97;;;18.30;;
11996;SDS011;6058;48.704;9.474;2024-03-07T09:56:59;34.87;;;20.87;;
11996;SDS011;6058;48.704;9.474;2024-03-07T09:59:28;30.97;;;17.20;;
11996;SDS011;6058;48.704;9.474;2024-03-07T10:01:55;34.23;;;20.37;;
11996;SDS011;6058;48.704;9.474;2024-03-07T10:04:25;30.00;;;17.67;;
11996;SDS011;6058;48.704;9.474;2024-03-07T10:06:57;35.37;;;21.80;;
11996;SDS011;6058;48.704;9.474;2024-03-07T10:09:24;33.47;;;21.00;;
11996;SDS011;6058;48.704;9.474;2024-03-07T10:11:55;36.47;;;21.37;;
11996;SDS011;6058;48.704;9.474;2024-03-07T10:14:23;37.20;;;20.60;;
11996;SDS011;6058;48.704;9.474;2024-03-07T10:16:50;36.13;;;19.77;;
11996;SDS011;6058;48.704;9.474;2024-03-07T10:19:17;28.47;;;18.23;;
11996;SDS011;6058;48.704;9.474;2024-03-07T10:21:44;30.73;;;18.37;;
11996;SDS011;6058;48.704;9.474;2024-03-07T10:24:13;31.53;;;17.53;;
11996;SDS011;6058;48.704;9.474;2024-03-07T10:26:40;38.47;;;21.60;;
11996;SDS011;6058;48.704;9.474;2024-03-07T10:29:08;33.77;;;19.73;;
11996;SDS011;6058;48.704;9.474;2024-03-07T10:31:35;30.60;;;19.03;;
11996;SDS011;6058;48.704;9.474;2024-03-07T10:34:03;28.83;;;18.23;;
11996;SDS011;6058;48.704;9.474;2024-03-07T10:36:30;34.60;;;20.43;;
11996;SDS011;6058;48.704;9.474;2024-03-07T10:38:58;27.73;;;16.43;;
11996;SDS011;6058;48.704;9.474;2024-03-07T10:41:40;35.80;;;21.20;;
11996;SDS011;6058;48.704;9.474;2024-03-07T10:44:09;31.70;;;19.97;;
11996;SDS011;6058;48.704;9.474;2024-03-07T10:46:39;32.97;;;19.60;;
11996;SDS011;6058;48.704;9.474;2024-03-07T10:49:07;37.70;;;22.67;;
11996;SDS011;6058;48.704;9.474;2024-03-07T10:51:38;27.57;;;18.00;;
11996;SDS011;6058;48.704;9.474;2024-03-07T10:54:13;24.97;;;15.07;;
11996;SDS011;6058;48.704;9.474;2024-03-07T10:56:46;28.57;;;18.67;;
11996;SDS011;6058;48.704;9.474;2024-03-07T10:59:16;34.03;;;20.67;;
11996;SDS011;6058;48.704;9.474;2024-03-07T11:01:45;33.07;;;19.87;;
11996;SDS011;6058;48.704;9.474;2024-03-07T11:04:16;29.50;;;17.73;;
11996;SDS011;6058;48.704;9.474;2024-03-07T11:06:44;34.00;;;18.60;;
11996;SDS011;6058;48.704;9.474;2024-03-07T11:09:11;27.20;;;17.07;;
11996;SDS011;6058;48.704;9.474;2024-03-07T11:11:38;30.00;;;18.07;;
11996;SDS011;6058;48.704;9.474;2024-03-07T11:14:08;34.50;;;20.93;;
11996;SDS011;6058;48.704;9.474;2024-03-07T11:16:36;37.90;;;21.30;;
11996;SDS011;6058;48.704;9.474;2024-03-07T11:22:03;36.33;;;21.27;;
11996;SDS011;6058;48.704;9.474;2024-03-07T11:24:39;39.37;;;25.10;;
11996;SDS011;6058;48.704;9.474;2024-03-07T11:27:08;40.80;;;21.90;;
11996;SDS011;6058;48.704;9.474;2024-03-07T11:29:55;34.30;;;22.70;;
11996;SDS011;6058;48.704;9.474;2024-03-07T11:32:33;33.97;;;21.70;;
11996;SDS011;6058;48.704;9.474;2024-03-07T11:35:03;36.00;;;22.33;;
11996;SDS011;6058;48.704;9.474;2024-03-07T11:37:39;33.57;;;20.40;;
11996;SDS011;6058;48.704;9.474;2024-03-07T11:40:09;35.70;;;22.57;;
11996;SDS011;6058;48.704;9.474;2024-03-07T11:42:43;36.10;;;20.97;;
11996;SDS011;6058;48.704;9.474;2024-03-07T11:45:13;36.40;;;20.53;;
11996;SDS011;6058;48.704;9.474;2024-03-07T11:47:50;38.17;;;22.10;;
11996;SDS011;6058;48.704;9.474;2024-03-07T11:50:22;34.63;;;19.37;;
11996;SDS011;6058;48.704;9.474;2024-03-07T11:52:50;34.63;;;21.37;;
11996;SDS011;6058;48.704;9.474;2024-03-07T11:55:17;34.10;;;21.33;;
11996;SDS011;6058;48.704;9.474;2024-03-07T11:57:46;33.07;;;19.80;;
11996;SDS011;6058;48.704;9.474;2024-03-07T12:00:15;31.50;;;20.00;;
11996;SDS011;6058;48.704;9.474;2024-03-07T12:02:42;33.40;;;18.00;;
11996;SDS011;6058;48.704;9.474;2024-03-07T12:05:09;30.63;;;18.07;;
11996;SDS011;6058;48.704;9.474;2024-03-07T12:07:41;31.77;;;19.90;;
11996;SDS011;6058;48.704;9.474;2024-03-07T12:10:08;33.20;;;20.63;;
11996;SDS011;6058;48.704;9.474;2024-03-07T12:12:36;30.00;;;18.83;;
11996;SDS011;6058;48.704;9.474;2024-03-07T12:15:04;33.13;;;20.77;;
11996;SDS011;6058;48.704;9.474;2024-03-07T12:17:36;35.07;;;19.90;;
11996;SDS011;6058;48.704;9.474;2024-03-07T12:20:05;38.33;;;22.13;;
11996;SDS011;6058;48.704;9.474;2024-03-07T12:22:49;31.87;;;20.30;;
11996;SDS011;6058;48.704;9.474;2024-03-07T12:25:18;33.37;;;21.97;;
11996;SDS011;6058;48.704;9.474;2024-03-07T12:27:47;31.50;;;21.03;;
11996;SDS011;6058;48.704;9.474;2024-03-07T12:30:15;37.27;;;22.53;;
11996;SDS011;6058;48.704;9.474;2024-03-07T12:32:48;38.23;;;21.50;;
11996;SDS011;6058;48.704;9.474;2024-03-07T12:35:15;34.70;;;22.53;;
11996;SDS011;6058;48.704;9.474;2024-03-07T12:37:43;31.77;;;19.53;;
11996;SDS011;6058;48.704;9.474;2024-03-07T12:40:11;34.57;;;20.13;;
11996;SDS011;6058;48.704;9.474;2024-03-07T12:42:45;31.03;;;18.90;;
11996;SDS011;6058;48.704;9.474;2024-03-07T12:45:12;31.07;;;19.97;;
11996;SDS011;6058;48.704;9.474;2024-03-07T12:47:42;33.50;;;19.27;;
11996;SDS011;6058;48.704;9.474;2024-03-07T12:50:11;29.47;;;19.30;;
11996;SDS011;6058;48.704;9.474;2024-03-07T12:52:38;27.87;;;17.93;;
11996;SDS011;6058;48.704;9.474;2024-03-07T12:55:07;22.20;;;14.77;;
11996;SDS011;6058;48.704;9.474;2024-03-07T12:57:35;27.27;;;18.30;;
11996;SDS011;6058;48.704;9.474;2024-03-07T13:00:05;27.47;;;18.43;;
11996;SDS011;6058;48.704;9.474;2024-03-07T13:02:43;19.30;;;11.33;;
11996;SDS011;6058;48.704;9.474;2024-03-07T13:05:12;31.33;;;18.97;;
11996;SDS011;6058;48.704;9.474;2024-03-07T13:07:44;27.57;;;16.30;;
11996;SDS011;6058;48.704;9.474;2024-03-07T13:10:12;25.07;;;14.63;;
11996;SDS011;6058;48.704;9.474;2024-03-07T13:12:40;30.33;;;19.60;;
11996;SDS011;6058;48.704;9.474;2024-03-07T13:15:08;30.30;;;20.17;;
11996;SDS011;6058;48.704;9.474;2024-03-07T13:17:36;30.43;;;19.73;;
11996;SDS011;6058;48.704;9.474;2024-03-07T13:20:03;28.10;;;19.90;;
11996;SDS011;6058;48.704;9.474;2024-03-07T13:22:38;31.50;;;20.03;;
11996;SDS011;6058;48.704;9.474;2024-03-07T13:25:07;29.97;;;19.67;;
11996;SDS011;6058;48.704;9.474;2024-03-07T13:27:39;31.37;;;20.30;;
11996;SDS011;6058;48.704;9.474;2024-03-07T13:30:09;26.27;;;14.67;;
11996;SDS011;6058;48.704;9.474;2024-03-07T13:32:48;31.87;;;18.90;;
11996;SDS011;6058;48.704;9.474;2024-03-07T13:35:16;31.03;;;19.23;;
11996;SDS011;6058;48.704;9.474;2024-03-07T13:37:46;31.27;;;19.87;;
11996;SDS011;6058;48.704;9.474;2024-03-07T13:40:13;31.73;;;19.37;;
11996;SDS011;6058;48.704;9.474;2024-03-07T13:42:48;25.53;;;13.97;;
11996;SDS011;6058;48.704;9.474;2024-03-07T13:45:17;27.27;;;16.83;;
11996;SDS011;6058;48.704;9.474;2024-03-07T13:47:45;32.07;;;19.60;;
11996;SDS011;6058;48.704;9.474;2024-03-07T13:50:14;33.10;;;19.83;;
11996;SDS011;6058;48.704;9.474;2024-03-07T13:52:41;30.60;;;19.40;;
11996;SDS011;6058;48.704;9.474;2024-03-07T13:55:30;31.07;;;18.57;;
11996;SDS011;6058;48.704;9.474;2024-03-07T13:57:58;27.30;;;16.97;;
11996;SDS011;6058;48.704;9.474;2024-03-07T14:00:30;30.83;;;17.30;;
11996;SDS011;6058;48.704;9.474;2024-03-07T14:03:11;32.47;;;17.70;;
11996;SDS011;6058;48.704;9.474;2024-03-07T14:05:52;29.73;;;18.73;;
11996;SDS011;6058;48.704;9.474;2024-03-07T14:08:35;28.27;;;18.90;;
11996;SDS011;6058;48.704;9.474;2024-03-07T14:11:18;29.63;;;17.30;;
11996;SDS011;6058;48.704;9.474;2024-03-07T14:14:01;21.83;;;11.60;;
11996;SDS011;6058;48.704;9.474;2024-03-07T14:16:43;28.83;;;15.80;;
11996;SDS011;6058;48.704;9.474;2024-03-07T14:19:24;29.80;;;19.03;;
11996;SDS011;6058;48.704;9.474;2024-03-07T14:22:02;25.93;;;16.73;;
11996;SDS011;6058;48.704;9.474;2024-03-07T14:24:37;28.27;;;18.63;;
11996;SDS011;6058;48.704;9.474;2024-03-07T14:27:21;26.27;;;16.23;;
11996;SDS011;6058;48.704;9.474;2024-03-07T14:29:51;29.80;;;17.90;;
11996;SDS011;6058;48.704;9.474;2024-03-07T14:32:21;26.30;;;16.17;;
11996;SDS011;6058;48.704;9.474;2024-03-07T14:34:54;28.27;;;17.67;;
11996;SDS011;6058;48.704;9.474;2024-03-07T14:37:23;28.03;;;17.23;;
11996;SDS011;6058;48.704;9.474;2024-03-07T14:39:52;26.07;;;17.63;;
11996;SDS011;6058;48.704;9.474;2024-03-07T14:42:20;28.67;;;16.13;;
11996;SDS011;6058;48.704;9.474;2024-03-07T14:44:49;26.70;;;16.93;;
11996;SDS011;6058;48.704;9.474;2024-03-07T14:47:19;25.70;;;16.90;;
11996;SDS011;6058;48.704;9.474;2024-03-07T14:49:47;30.60;;;16.90;;